createdAt,value
2023-02-12T00:02:28.947Z,102996.63
2023-02-12T00:05:34.512Z,103000.41
2023-02-12T00:08:41.459Z,102993.94
2023-02-12T00:11:46.536Z,102992.03
2023-02-12T00:14:51.881Z,102992.38
2023-02-12T00:17:57.017Z,102978.47
2023-02-12T00:21:02.914Z,102982.78
2023-02-12T00:24:09.832Z,102989.03
2023-02-12T00:27:15.998Z,102977.28
2023-02-12T00:30:21.233Z,102978.50
2023-02-12T00:33:26.454Z,102964.75
2023-02-12T00:36:33.063Z,102957.06
2023-02-12T00:39:40.972Z,102956.38
2023-02-12T00:42:48.393Z,102961.28
2023-02-12T00:45:54.086Z,102961.56
2023-02-12T00:48:59.426Z,102956.81
2023-02-12T00:52:06.280Z,102958.44
2023-02-12T00:55:12.829Z,102959.28
2023-02-12T00:58:19.079Z,102951.41
2023-02-12T01:01:24.625Z,102950.09
2023-02-12T01:04:29.910Z,102956.16
2023-02-12T01:07:34.922Z,102954.44
2023-02-12T01:10:41.899Z,102956.56
2023-02-12T01:13:48.225Z,102974.03
2023-02-12T01:16:53.457Z,102973.78
2023-02-12T01:19:59.807Z,102975.78
2023-02-12T01:23:07.050Z,102964.53
2023-02-12T01:26:16.246Z,102967.81
2023-02-12T01:29:21.382Z,102960.38
2023-02-12T01:32:26.782Z,102949.84
2023-02-12T01:35:31.944Z,102959.13
2023-02-12T01:38:36.855Z,102964.63
2023-02-12T01:41:45.598Z,102962.75
2023-02-12T01:45:29.488Z,102969.72
2023-02-12T01:48:38.268Z,102961.25
2023-02-12T01:51:44.011Z,102968.38
2023-02-12T01:54:51.289Z,102975.03
2023-02-12T01:57:57.885Z,102962.31
2023-02-12T02:01:03.955Z,102969.66
2023-02-12T02:04:12.056Z,102959.13
2023-02-12T02:07:20.777Z,102946.09
2023-02-12T02:10:29.317Z,102956.19
2023-02-12T02:13:54.300Z,102941.69
2023-02-12T02:17:09.560Z,102925.97
2023-02-12T02:20:52.147Z,102940.34
2023-02-12T02:24:33.539Z,102926.19
2023-02-12T02:27:43.967Z,102929.28
2023-02-12T02:30:54.941Z,102922.03
2023-02-12T02:34:04.906Z,102924.84
2023-02-12T02:37:17.663Z,102917.16
2023-02-12T02:40:26.417Z,102917.22
2023-02-12T02:43:35.337Z,102909.97
2023-02-12T02:46:45.601Z,102907.16
2023-02-12T02:49:53.914Z,102901.06
2023-02-12T02:53:03.210Z,102909.13
2023-02-12T02:56:10.945Z,102894.63
2023-02-12T02:59:21.616Z,102899.13
2023-02-12T03:02:30.765Z,102901.97
2023-02-12T03:05:40.846Z,102912.19
2023-02-12T03:08:51.521Z,102904.75
2023-02-12T03:12:05.015Z,102902.34
2023-02-12T03:15:16.868Z,102896.53
2023-02-12T03:18:27.900Z,102885.97
2023-02-12T03:21:37.489Z,102887.84
2023-02-12T03:24:44.982Z,102891.50
2023-02-12T03:27:54.195Z,102885.78
2023-02-12T03:31:09.875Z,102877.09
2023-02-12T03:34:20.535Z,102878.25
2023-02-12T03:37:31.222Z,102871.41
2023-02-12T03:40:39.377Z,102876.59
2023-02-12T03:43:51.424Z,102871.56
2023-02-12T03:47:01.787Z,102865.16
2023-02-12T03:50:17.799Z,102858.56
2023-02-12T03:53:23.047Z,102871.81
2023-02-12T03:56:31.858Z,102865.16
2023-02-12T03:59:40.103Z,102854.75
2023-02-12T04:02:45.819Z,102848.66
2023-02-12T04:05:53.769Z,102843.00
2023-02-12T04:09:03.220Z,102836.47
2023-02-12T04:12:21.543Z,102829.03
2023-02-12T04:15:48.355Z,102827.38
2023-02-12T04:18:54.152Z,102840.00
2023-02-12T04:22:13.294Z,102834.41
2023-02-12T04:25:26.319Z,102833.84
2023-02-12T04:28:37.923Z,102830.69
2023-02-12T04:31:50.428Z,102838.56
2023-02-12T04:35:04.285Z,102842.72
2023-02-12T04:38:15.143Z,102834.56
2023-02-12T04:41:21.542Z,102838.88
2023-02-12T04:44:29.384Z,102838.94
2023-02-12T04:47:34.779Z,102828.91
2023-02-12T04:50:42.670Z,102834.72
2023-02-12T04:53:51.230Z,102828.13
2023-02-12T04:56:56.590Z,102827.19
2023-02-12T05:00:03.035Z,102815.41
2023-02-12T05:03:11.706Z,102815.47
2023-02-12T05:06:16.758Z,102813.06
2023-02-12T05:09:24.663Z,102805.03
2023-02-12T05:12:30.716Z,102804.34
2023-02-12T05:15:36.726Z,102795.75
2023-02-12T05:18:42.733Z,102779.09
2023-02-12T05:21:48.444Z,102774.13
2023-02-12T05:24:58.221Z,102770.41
2023-02-12T05:28:03.786Z,102764.53
2023-02-12T05:31:11.337Z,102766.09
2023-02-12T05:34:17.695Z,102755.97
2023-02-12T05:37:23.611Z,102751.91
2023-02-12T05:40:31.567Z,102741.84
2023-02-12T05:43:40.178Z,102729.16
2023-02-12T05:46:45.926Z,102726.00
2023-02-12T05:49:54.014Z,102724.25
2023-02-12T05:52:59.797Z,102722.81
2023-02-12T05:56:15.226Z,102710.06
2023-02-12T05:59:22.310Z,102708.19
2023-02-12T06:02:29.319Z,102719.16
2023-02-12T06:05:38.400Z,102716.59
2023-02-12T06:08:44.216Z,102706.63
2023-02-12T06:11:53.533Z,102722.69
2023-02-12T06:14:59.339Z,102724.47
2023-02-12T06:18:04.680Z,102733.13
2023-02-12T06:21:11.768Z,102730.44
2023-02-12T06:24:18.251Z,102724.16
2023-02-12T06:27:28.119Z,102725.00
2023-02-12T06:30:35.236Z,102715.97
2023-02-12T06:33:41.049Z,102726.31
2023-02-12T06:36:48.111Z,102706.94
2023-02-12T06:39:53.470Z,102707.88
2023-02-12T06:43:01.025Z,102704.72
2023-02-12T06:46:07.586Z,102715.47
2023-02-12T06:49:14.556Z,102714.91
2023-02-12T06:52:23.586Z,102706.63
2023-02-12T06:55:29.125Z,102716.75
2023-02-12T06:58:36.366Z,102716.06
2023-02-12T07:01:44.156Z,102716.22
2023-02-12T07:04:49.549Z,102712.13
2023-02-12T07:07:58.625Z,102703.91
2023-02-12T07:11:07.025Z,102696.38
2023-02-12T07:14:16.824Z,102694.84
2023-02-12T07:17:22.288Z,102689.88
2023-02-12T07:20:28.268Z,102683.31
2023-02-12T07:23:34.364Z,102690.31
2023-02-12T07:26:39.415Z,102673.66
2023-02-12T07:29:48.129Z,102686.44
2023-02-12T07:32:53.785Z,102684.59
2023-02-12T07:36:06.918Z,102689.66
2023-02-12T07:39:13.634Z,102683.09
2023-02-12T07:42:20.620Z,102686.41
2023-02-12T07:45:29.967Z,102690.72
2023-02-12T07:48:35.777Z,102680.84
2023-02-12T07:51:41.243Z,102687.66
2023-02-12T07:54:46.868Z,102677.81
2023-02-12T07:57:54.442Z,102674.63
2023-02-12T08:01:02.854Z,102673.03
2023-02-12T08:04:09.810Z,102681.72
2023-02-12T08:07:15.749Z,102671.72
2023-02-12T08:10:22.447Z,102668.59
2023-02-12T08:13:27.807Z,102645.28
2023-02-12T08:16:39.497Z,102642.03
2023-02-12T08:19:45.618Z,102639.78
2023-02-12T08:22:50.935Z,102618.97
2023-02-12T08:25:56.760Z,102610.63
2023-02-12T08:29:04.344Z,102614.16
2023-02-12T08:32:15.175Z,102613.56
2023-02-12T08:35:20.871Z,102613.69
2023-02-12T08:38:27.548Z,102602.69
2023-02-12T08:41:33.149Z,102598.09
2023-02-12T08:44:38.117Z,102603.25
2023-02-12T08:47:45.275Z,102601.81
2023-02-12T08:50:50.636Z,102600.38
2023-02-12T08:53:58.552Z,102599.13
2023-02-12T08:57:05.105Z,102606.38
2023-02-12T09:00:12.608Z,102603.91
2023-02-12T09:03:21.137Z,102616.63
2023-02-12T09:06:27.353Z,102625.16
2023-02-12T09:09:33.248Z,102626.00
2023-02-12T09:12:38.325Z,102627.81
2023-02-12T09:15:45.272Z,102627.13
2023-02-12T09:18:52.571Z,102626.44
2023-02-12T09:22:01.006Z,102620.75
2023-02-12T09:25:07.089Z,102625.88
2023-02-12T09:28:16.525Z,102618.31
2023-02-12T09:31:26.459Z,102626.28
2023-02-12T09:34:36.638Z,102623.88
2023-02-12T09:37:45.110Z,102609.84
2023-02-12T09:41:01.763Z,102611.25
2023-02-12T09:44:12.528Z,102610.53
2023-02-12T09:47:25.317Z,102593.91
2023-02-12T09:50:40.641Z,102581.34
2023-02-12T09:53:53.979Z,102559.56
2023-02-12T09:57:01.729Z,102563.09
2023-02-12T10:00:11.228Z,102562.31
2023-02-12T10:03:18.941Z,102552.28
2023-02-12T10:06:28.554Z,102542.25
2023-02-12T10:09:45.950Z,102535.44
2023-02-12T10:12:54.854Z,102543.06
2023-02-12T10:16:06.467Z,102549.22
2023-02-12T10:19:25.075Z,102558.63
2023-02-12T10:22:45.475Z,102547.72
2023-02-12T10:26:03.187Z,102548.72
2023-02-12T10:29:14.518Z,102546.97
2023-02-12T10:32:26.148Z,102546.38
2023-02-12T10:35:31.910Z,102549.09
2023-02-12T10:38:47.323Z,102534.81
2023-02-12T10:41:57.928Z,102543.34
2023-02-12T10:45:03.868Z,102525.06
2023-02-12T10:48:13.157Z,102530.94
2023-02-12T10:51:39.788Z,102531.19
2023-02-12T10:54:49.277Z,102511.91
2023-02-12T10:57:55.175Z,102502.91
2023-02-12T11:01:05.495Z,102508.72
2023-02-12T11:04:26.073Z,102511.41
2023-02-12T11:07:31.906Z,102508.03
2023-02-12T11:10:40.751Z,102508.97
2023-02-12T11:13:49.895Z,102514.84
2023-02-12T11:16:57.781Z,102509.88
2023-02-12T11:20:21.625Z,102504.78
2023-02-12T11:23:29.437Z,102488.34
2023-02-12T11:26:36.072Z,102498.41
2023-02-12T11:29:41.577Z,102491.00
2023-02-12T11:32:49.600Z,102485.25
2023-02-12T11:36:01.061Z,102490.25
2023-02-12T11:39:10.832Z,102489.63
2023-02-12T11:42:25.721Z,102486.47
2023-02-12T11:45:35.759Z,102479.84
2023-02-12T11:48:43.066Z,102476.47
2023-02-12T11:51:49.824Z,102472.25
2023-02-12T11:55:00.068Z,102474.13
2023-02-12T11:58:14.748Z,102469.88
2023-02-12T12:01:22.430Z,102458.19
2023-02-12T12:04:31.892Z,102460.81
2023-02-12T12:07:42.939Z,102456.72
2023-02-12T12:10:51.103Z,102448.44
2023-02-12T12:14:03.230Z,102460.06
2023-02-12T12:17:34.557Z,102464.44
2023-02-12T12:20:42.804Z,102455.16
2023-02-12T12:23:51.276Z,102462.66
2023-02-12T12:27:01.291Z,102457.69
2023-02-12T12:30:17.953Z,102451.69
2023-02-12T12:33:32.389Z,102451.09
2023-02-12T12:37:12.192Z,102462.78
2023-02-12T12:40:36.501Z,102461.88
2023-02-12T12:43:51.538Z,102467.09
2023-02-12T12:47:11.965Z,102454.38
2023-02-12T12:50:40.236Z,102460.28
2023-02-12T12:53:56.867Z,102458.59
2023-02-12T12:57:11.987Z,102451.09
2023-02-12T13:00:28.803Z,102454.34
2023-02-12T13:04:10.447Z,102447.31
2023-02-12T13:07:34.354Z,102448.81
2023-02-12T13:10:43.105Z,102452.19
2023-02-12T13:13:51.154Z,102462.25
2023-02-12T13:17:02.155Z,102461.38
2023-02-12T13:20:12.055Z,102458.84
2023-02-12T13:23:22.194Z,102462.31
2023-02-12T13:26:35.027Z,102460.06
2023-02-12T13:29:46.256Z,102458.25
2023-02-12T13:32:59.571Z,102454.91
2023-02-12T13:36:09.016Z,102453.09
2023-02-12T13:39:24.046Z,102453.88
2023-02-12T13:42:40.752Z,102456.31
2023-02-12T13:45:52.527Z,102463.72
2023-02-12T13:49:06.727Z,102467.97
2023-02-12T13:52:21.307Z,102468.81
2023-02-12T13:55:33.236Z,102473.66
2023-02-12T13:59:00.577Z,102478.94
2023-02-12T14:02:06.911Z,102483.63
2023-02-12T14:05:32.563Z,102470.78
2023-02-12T14:08:40.167Z,102465.72
2023-02-12T14:11:52.615Z,102475.75
2023-02-12T14:15:06.228Z,102479.06
2023-02-12T14:18:35.819Z,102471.31
2023-02-12T14:21:43.540Z,102478.97
2023-02-12T14:25:18.276Z,102468.75
2023-02-12T14:33:18.702Z,102464.72
2023-02-12T14:36:40.921Z,102464.41
2023-02-12T14:39:47.750Z,102465.03
2023-02-12T14:42:57.849Z,102467.00
2023-02-12T14:46:35.507Z,102470.91
2023-02-12T14:49:44.033Z,102469.75
2023-02-12T14:52:55.229Z,102462.94
2023-02-12T14:56:00.898Z,102467.16
2023-02-12T14:59:06.465Z,102469.38
2023-02-12T15:02:18.657Z,102471.91
2023-02-12T15:05:27.661Z,102476.91
2023-02-12T15:08:45.495Z,102477.63
2023-02-12T15:11:54.249Z,102475.75
2023-02-12T15:15:06.167Z,102486.47
2023-02-12T15:18:17.346Z,102483.19
2023-02-12T15:21:26.399Z,102489.78
2023-02-12T15:24:31.711Z,102499.78
2023-02-12T15:27:37.623Z,102493.84
2023-02-12T15:30:44.596Z,102506.00
2023-02-12T15:33:51.617Z,102502.88
2023-02-12T15:37:00.181Z,102500.84
2023-02-12T15:40:08.682Z,102500.53
2023-02-12T15:43:19.373Z,102493.69
2023-02-12T15:46:24.330Z,102492.38
2023-02-12T15:49:34.115Z,102484.97
2023-02-12T15:52:42.594Z,102495.53
2023-02-12T15:55:51.753Z,102492.47
2023-02-12T15:58:58.202Z,102498.88
2023-02-12T16:02:04.689Z,102500.19
2023-02-12T16:05:16.065Z,102498.56
2023-02-12T16:08:26.545Z,102508.66
2023-02-12T16:11:32.976Z,102509.25
2023-02-12T16:14:44.700Z,102516.75
2023-02-12T16:17:50.221Z,102515.13
2023-02-12T16:21:05.494Z,102513.53
2023-02-12T16:24:24.370Z,102500.56
2023-02-12T16:27:32.197Z,102495.72
2023-02-12T16:30:45.095Z,102496.59
2023-02-12T16:33:53.646Z,102504.19
2023-02-12T16:36:58.487Z,102508.94
2023-02-12T16:40:29.982Z,102497.97
2023-02-12T16:43:39.000Z,102499.91
2023-02-12T16:46:48.796Z,102489.00
2023-02-12T16:49:56.416Z,102486.88
2023-02-12T16:53:02.512Z,102482.53
2023-02-12T16:56:13.437Z,102493.38
2023-02-12T16:59:18.624Z,102494.19
2023-02-12T17:02:24.035Z,102503.91
2023-02-12T17:05:29.447Z,102506.34
2023-02-12T17:08:34.790Z,102502.09
2023-02-12T17:11:42.302Z,102490.50
2023-02-12T17:14:47.448Z,102506.56
2023-02-12T17:17:53.327Z,102519.41
2023-02-12T17:21:02.206Z,102522.16
2023-02-12T17:24:09.784Z,102523.47
2023-02-12T17:27:16.514Z,102525.88
2023-02-12T17:30:24.285Z,102530.31
2023-02-12T17:33:29.572Z,102535.09
2023-02-12T17:36:34.866Z,102536.72
2023-02-12T17:39:40.960Z,102536.44
2023-02-12T17:42:47.702Z,102536.06
2023-02-12T17:45:56.785Z,102544.38
2023-02-12T17:49:02.628Z,102531.63
2023-02-12T17:52:07.989Z,102530.88
2023-02-12T17:55:13.978Z,102532.56
2023-02-12T17:58:20.624Z,102531.78
2023-02-12T18:01:26.356Z,102542.22
2023-02-12T18:04:35.784Z,102538.75
2023-02-12T18:07:40.891Z,102545.03
2023-02-12T18:10:46.739Z,102546.00
2023-02-12T18:13:56.464Z,102536.41
2023-02-12T18:17:02.850Z,102540.16
2023-02-12T18:20:09.840Z,102539.28
2023-02-12T18:23:15.156Z,102542.84
2023-02-12T18:26:21.557Z,102526.69
2023-02-12T18:29:28.603Z,102523.34
2023-02-12T18:32:33.927Z,102526.03
2023-02-12T18:35:41.789Z,102526.88
2023-02-12T18:38:48.062Z,102528.75
2023-02-12T18:41:53.196Z,102523.41
2023-02-12T18:45:03.117Z,102539.75
2023-02-12T18:48:09.371Z,102543.03
2023-02-12T18:51:17.034Z,102544.00
2023-02-12T18:54:22.446Z,102558.81
2023-02-12T18:57:29.972Z,102557.44
2023-02-12T19:00:36.569Z,102555.66
2023-02-12T19:03:41.731Z,102577.44
2023-02-12T19:06:48.657Z,102574.97
2023-02-12T19:09:53.803Z,102572.50
2023-02-12T19:13:02.200Z,102574.34
2023-02-12T19:16:14.429Z,102583.78
2023-02-12T19:19:22.625Z,102575.09
2023-02-12T19:22:28.797Z,102571.53
2023-02-12T19:25:39.739Z,102569.81
2023-02-12T19:28:45.337Z,102572.34
2023-02-12T19:31:51.702Z,102570.50
2023-02-12T19:34:57.218Z,102584.66
2023-02-12T19:38:03.073Z,102577.28
2023-02-12T19:41:10.079Z,102575.38
2023-02-12T19:44:19.118Z,102575.94
2023-02-12T19:47:28.230Z,102578.34
2023-02-12T19:50:35.333Z,102578.00
2023-02-12T19:53:40.628Z,102572.78
2023-02-12T19:56:46.235Z,102573.72
2023-02-12T19:59:54.630Z,102562.97
2023-02-12T20:03:01.269Z,102557.59
2023-02-12T20:06:09.656Z,102564.88
2023-02-12T20:09:15.347Z,102578.19
2023-02-12T20:12:21.028Z,102573.84
2023-02-12T20:15:26.479Z,102580.78
2023-02-12T20:18:33.161Z,102581.53
2023-02-12T20:21:38.640Z,102578.97
2023-02-12T20:24:43.583Z,102572.94
2023-02-12T20:27:48.970Z,102569.25
2023-02-12T20:30:54.996Z,102568.25
2023-02-12T20:34:03.208Z,102565.69
2023-02-12T20:37:08.535Z,102562.31
2023-02-12T20:40:14.934Z,102558.13
2023-02-12T20:43:20.048Z,102549.69
2023-02-12T20:46:25.909Z,102547.97
2023-02-12T20:49:32.477Z,102547.81
2023-02-12T20:52:37.885Z,102534.81
2023-02-12T20:55:42.737Z,102535.88
2023-02-12T20:58:49.542Z,102533.09
2023-02-12T21:01:54.889Z,102532.56
2023-02-12T21:05:01.567Z,102521.91
2023-02-12T21:08:07.499Z,102517.97
2023-02-12T21:11:21.505Z,102521.25
2023-02-12T21:14:27.386Z,102526.66
2023-02-12T21:17:33.297Z,102512.31
2023-02-12T21:20:40.812Z,102530.63
2023-02-12T21:23:46.386Z,102539.69
2023-02-12T21:26:51.429Z,102548.84
2023-02-12T21:29:56.712Z,102549.69
2023-02-12T21:33:03.301Z,102546.16
2023-02-12T21:36:12.489Z,102546.88
2023-02-12T21:39:24.503Z,102544.44
2023-02-12T21:42:32.362Z,102534.31
2023-02-12T21:45:37.495Z,102548.84
2023-02-12T21:48:42.820Z,102545.50
2023-02-12T21:51:52.148Z,102537.78
2023-02-12T21:54:57.399Z,102548.59
2023-02-12T21:58:02.482Z,102539.19
2023-02-12T22:01:08.848Z,102535.13
2023-02-12T22:04:15.030Z,102541.00
2023-02-12T22:07:21.532Z,102543.53
2023-02-12T22:10:26.918Z,102536.06
2023-02-12T22:13:32.246Z,102536.03
2023-02-12T22:16:38.487Z,102529.56
2023-02-12T22:19:44.156Z,102532.88
2023-02-12T22:22:50.700Z,102532.94
2023-02-12T22:25:57.171Z,102535.47
2023-02-12T22:29:04.545Z,102535.63
2023-02-12T22:32:10.130Z,102533.03
2023-02-12T22:35:15.426Z,102537.78
2023-02-12T22:38:21.691Z,102531.84
2023-02-12T22:41:27.447Z,102528.44
2023-02-12T22:44:32.627Z,102522.66
2023-02-12T22:47:37.789Z,102522.16
2023-02-12T22:50:42.982Z,102519.56
2023-02-12T22:53:49.750Z,102519.13
2023-02-12T22:56:55.153Z,102524.78
2023-02-12T23:00:00.228Z,102529.44
2023-02-12T23:03:05.472Z,102527.00
2023-02-12T23:06:11.962Z,102525.47
2023-02-12T23:09:19.946Z,102517.09
2023-02-12T23:12:25.287Z,102513.63
2023-02-12T23:15:30.426Z,102515.38
2023-02-12T23:18:35.649Z,102522.75
2023-02-12T23:21:41.221Z,102519.78
2023-02-12T23:24:47.746Z,102517.25
2023-02-12T23:27:52.798Z,102523.97
2023-02-12T23:30:58.625Z,102512.16
2023-02-12T23:34:04.495Z,102517.88
2023-02-12T23:37:11.625Z,102520.44
2023-02-12T23:40:18.464Z,102517.88
2023-02-12T23:43:23.379Z,102519.53
2023-02-12T23:46:28.453Z,102513.00
2023-02-12T23:49:35.527Z,102517.16
2023-02-12T23:52:43.156Z,102513.13
2023-02-12T23:55:51.619Z,102514.25
2023-02-12T23:58:57.947Z,102502.78
